createdAt,value
2018-09-26T00:02:04.139Z,53.85
2018-09-26T00:04:30.475Z,54.36
2018-09-26T00:06:56.814Z,53.36
2018-09-26T00:09:23.160Z,54.51
2018-09-26T00:11:49.508Z,53.62
2018-09-26T00:14:15.845Z,52.92
2018-09-26T00:16:42.223Z,53.89
2018-09-26T00:19:08.564Z,53.76
2018-09-26T00:21:34.883Z,54.97
2018-09-26T00:24:01.264Z,53.58
2018-09-26T00:26:27.568Z,54.32
2018-09-26T00:28:53.906Z,55.23
2018-09-26T00:31:20.220Z,55.02
2018-09-26T00:33:46.535Z,55.16
2018-09-26T00:36:12.980Z,55.86
2018-09-26T00:38:39.192Z,55.89
2018-09-26T00:41:05.531Z,55.08
2018-09-26T00:43:31.866Z,55.50
2018-09-26T00:45:58.205Z,55.98
2018-09-26T00:48:24.520Z,55.93
2018-09-26T00:50:50.836Z,55.19
2018-09-26T00:53:17.156Z,56.65
2018-09-26T00:55:43.492Z,57.31
2018-09-26T00:58:09.826Z,57.51
2018-09-26T01:00:36.135Z,58.16
2018-09-26T01:03:02.479Z,57.98
2018-09-26T01:05:28.814Z,58.25
2018-09-26T01:07:55.239Z,56.89
2018-09-26T01:10:21.589Z,58.20
2018-09-26T01:12:47.929Z,58.53
2018-09-26T01:15:14.294Z,57.15
2018-09-26T01:17:40.605Z,57.73
2018-09-26T01:20:06.918Z,57.42
2018-09-26T01:22:33.254Z,57.77
2018-09-26T01:24:59.570Z,58.85
2018-09-26T01:27:25.921Z,59.61
2018-09-26T01:29:52.303Z,61.31
2018-09-26T01:32:18.612Z,60.31
2018-09-26T01:34:44.951Z,61.67
2018-09-26T01:37:11.264Z,62.23
2018-09-26T01:39:37.609Z,62.51
2018-09-26T01:42:03.925Z,61.75
2018-09-26T01:44:30.241Z,62.48
2018-09-26T01:46:56.583Z,63.70
2018-09-26T01:49:22.920Z,64.54
2018-09-26T01:51:49.259Z,64.18
2018-09-26T01:54:15.598Z,64.41
2018-09-26T01:56:41.913Z,65.17
2018-09-26T01:59:08.236Z,64.17
2018-09-26T02:01:34.566Z,63.04
2018-09-26T02:04:00.882Z,64.00
2018-09-26T02:06:27.215Z,64.01
2018-09-26T02:08:53.592Z,64.31
2018-09-26T02:11:19.908Z,63.36
2018-09-26T02:13:46.255Z,63.59
2018-09-26T02:16:12.596Z,63.82
2018-09-26T02:18:38.907Z,62.86
2018-09-26T02:21:05.242Z,63.25
2018-09-26T02:23:31.586Z,63.53
2018-09-26T02:25:57.903Z,63.40
2018-09-26T02:28:24.279Z,63.64
2018-09-26T02:30:50.674Z,63.47
2018-09-26T02:33:17.002Z,63.28
2018-09-26T02:35:43.318Z,63.19
2018-09-26T02:38:09.658Z,63.30
2018-09-26T02:40:36.020Z,63.74
2018-09-26T02:43:02.367Z,63.72
2018-09-26T02:45:28.686Z,62.90
2018-09-26T02:47:54.997Z,62.59
2018-09-26T02:50:21.335Z,63.34
2018-09-26T02:52:47.644Z,62.76
2018-09-26T02:55:13.983Z,63.07
2018-09-26T02:57:40.297Z,62.92
2018-09-26T03:00:06.611Z,62.58
2018-09-26T03:02:32.927Z,63.32
2018-09-26T03:04:59.247Z,63.12
2018-09-26T03:07:25.562Z,62.62
2018-09-26T03:09:51.883Z,62.20
2018-09-26T03:12:18.221Z,62.16
2018-09-26T03:14:44.539Z,61.58
2018-09-26T03:17:10.875Z,62.06
2018-09-26T03:19:37.214Z,61.72
2018-09-26T03:22:03.524Z,62.54
2018-09-26T03:24:29.863Z,62.78
2018-09-26T03:26:56.177Z,62.90
2018-09-26T03:29:22.499Z,62.15
2018-09-26T03:31:48.818Z,62.46
2018-09-26T03:34:15.188Z,61.58
2018-09-26T03:36:41.533Z,61.33
2018-09-26T03:39:07.845Z,62.41
2018-09-26T03:41:34.198Z,61.27
2018-09-26T03:44:00.531Z,60.72
2018-09-26T03:46:26.924Z,60.28
2018-09-26T03:48:53.237Z,59.35
2018-09-26T03:51:19.578Z,59.97
2018-09-26T03:53:45.896Z,61.34
2018-09-26T03:56:12.235Z,61.41
2018-09-26T03:58:38.575Z,62.10
2018-09-26T04:01:04.916Z,63.61
2018-09-26T04:03:31.233Z,63.89
2018-09-26T04:05:57.547Z,64.70
2018-09-26T04:08:23.888Z,65.99
2018-09-26T04:10:50.203Z,66.24
2018-09-26T04:13:16.537Z,66.70
2018-09-26T04:15:42.903Z,67.11
2018-09-26T04:18:09.167Z,67.10
2018-09-26T04:20:35.474Z,67.59
2018-09-26T04:23:01.814Z,67.50
2018-09-26T04:25:28.162Z,67.67
2018-09-26T04:27:54.491Z,67.90
2018-09-26T04:30:20.887Z,68.04
2018-09-26T04:32:47.286Z,67.90
2018-09-26T04:35:13.512Z,67.68
2018-09-26T04:37:39.827Z,67.30
2018-09-26T04:40:06.174Z,66.80
2018-09-26T04:42:32.479Z,66.08
2018-09-26T04:44:58.800Z,65.47
2018-09-26T04:47:25.117Z,65.07
2018-09-26T04:49:51.478Z,64.77
2018-09-26T04:52:17.816Z,64.70
2018-09-26T04:54:44.166Z,63.88
2018-09-26T04:57:10.503Z,64.71
2018-09-26T04:59:36.843Z,60.88
2018-09-26T05:02:03.159Z,60.11
2018-09-26T05:04:29.499Z,60.17
2018-09-26T05:06:55.860Z,59.83
2018-09-26T05:09:22.266Z,59.63
2018-09-26T05:11:48.602Z,59.26
2018-09-26T05:14:14.940Z,58.80
2018-09-26T05:16:41.254Z,58.83
2018-09-26T05:19:07.569Z,58.68
2018-09-26T05:21:33.882Z,58.32
2018-09-26T05:24:00.241Z,57.86
2018-09-26T05:26:26.538Z,56.22
2018-09-26T05:28:52.885Z,55.43
2018-09-26T05:31:19.193Z,55.05
2018-09-26T05:33:45.540Z,54.79
2018-09-26T05:36:11.855Z,54.02
2018-09-26T05:38:38.200Z,54.59
2018-09-26T05:41:04.540Z,55.03
2018-09-26T05:43:30.865Z,54.31
2018-09-26T05:45:57.173Z,53.96
2018-09-26T05:48:23.495Z,53.38
2018-09-26T05:50:49.819Z,53.22
2018-09-26T05:53:16.189Z,52.93
2018-09-26T05:55:42.536Z,53.37
2018-09-26T05:58:08.853Z,52.85
2018-09-26T06:00:35.191Z,52.65
2018-09-26T06:03:01.534Z,52.75
2018-09-26T06:05:27.916Z,51.58
2018-09-26T06:07:54.171Z,52.00
2018-09-26T06:10:20.508Z,52.64
2018-09-26T06:12:46.847Z,51.77
2018-09-26T06:15:13.171Z,51.33
2018-09-26T06:17:39.560Z,51.77
2018-09-26T06:20:05.899Z,50.46
2018-09-26T06:22:32.219Z,50.01
2018-09-26T06:24:58.564Z,49.58
2018-09-26T06:27:24.949Z,48.27
2018-09-26T06:29:51.270Z,47.22
2018-09-26T06:32:17.587Z,47.76
2018-09-26T06:34:43.903Z,47.88
2018-09-26T06:37:10.224Z,47.65
2018-09-26T06:39:36.541Z,47.40
2018-09-26T06:42:02.857Z,46.90
2018-09-26T06:44:29.190Z,47.51
2018-09-26T06:46:55.535Z,47.14
2018-09-26T06:49:21.871Z,47.07
2018-09-26T06:51:48.188Z,46.16
2018-09-26T06:54:14.548Z,45.42
2018-09-26T06:56:40.894Z,44.63
2018-09-26T06:59:07.241Z,44.33
2018-09-26T07:01:33.581Z,44.40
2018-09-26T07:03:59.933Z,43.75
2018-09-26T07:06:26.273Z,44.12
2018-09-26T07:08:52.585Z,44.47
2018-09-26T07:11:18.940Z,44.19
2018-09-26T07:13:45.276Z,43.90
2018-09-26T07:16:11.620Z,44.07
2018-09-26T07:18:37.959Z,42.74
2018-09-26T07:21:04.300Z,43.00
2018-09-26T07:23:30.662Z,42.34
2018-09-26T07:25:57.035Z,42.82
2018-09-26T07:28:23.396Z,41.88
2018-09-26T07:30:49.714Z,41.37
2018-09-26T07:33:16.116Z,41.62
2018-09-26T07:35:42.394Z,42.48
2018-09-26T07:38:08.733Z,41.50
2018-09-26T07:40:35.046Z,40.95
2018-09-26T07:43:01.390Z,41.08
2018-09-26T07:45:27.760Z,41.50
2018-09-26T07:47:54.018Z,41.37
2018-09-26T07:50:20.371Z,40.62
2018-09-26T07:52:46.686Z,40.61
2018-09-26T07:55:13.029Z,40.44
2018-09-26T07:57:39.349Z,42.20
2018-09-26T08:00:05.774Z,40.59
2018-09-26T08:02:32.013Z,39.79
2018-09-26T08:04:58.369Z,39.63
2018-09-26T08:07:24.703Z,39.64
2018-09-26T08:09:51.025Z,39.58
2018-09-26T08:12:17.371Z,39.87
2018-09-26T08:14:43.690Z,39.75
2018-09-26T08:17:10.038Z,40.02
2018-09-26T08:19:36.375Z,39.19
2018-09-26T08:22:02.701Z,39.72
2018-09-26T08:24:29.018Z,39.32
2018-09-26T08:26:55.360Z,38.89
2018-09-26T08:29:21.693Z,37.64
2018-09-26T08:31:48.045Z,37.06
2018-09-26T08:34:14.388Z,36.26
2018-09-26T08:36:40.733Z,37.94
2018-09-26T08:39:07.084Z,36.78
2018-09-26T08:41:33.428Z,36.40
2018-09-26T08:43:59.829Z,36.09
2018-09-26T08:46:26.088Z,35.76
2018-09-26T08:48:52.401Z,34.47
2018-09-26T08:51:18.722Z,35.55
2018-09-26T08:53:45.059Z,33.43
2018-09-26T08:56:11.384Z,31.78
2018-09-26T08:58:37.709Z,31.05
2018-09-26T09:01:04.022Z,31.44
2018-09-26T09:03:30.346Z,31.92
2018-09-26T09:05:56.685Z,31.37
2018-09-26T09:08:23.010Z,32.06
2018-09-26T09:10:49.350Z,33.80
2018-09-26T09:13:15.737Z,35.85
2018-09-26T09:15:42.075Z,36.93
2018-09-26T09:18:08.462Z,36.63
2018-09-26T09:20:34.863Z,36.85
2018-09-26T09:23:01.205Z,35.31
2018-09-26T09:25:27.560Z,34.08
2018-09-26T09:27:53.886Z,33.40
2018-09-26T09:30:20.235Z,33.68
2018-09-26T09:32:46.567Z,34.07
2018-09-26T09:35:12.967Z,34.35
2018-09-26T09:37:39.285Z,35.07
2018-09-26T09:40:05.631Z,33.53
2018-09-26T09:42:32.077Z,33.07
2018-09-26T09:44:58.420Z,33.35
2018-09-26T09:47:24.737Z,32.66
2018-09-26T09:49:51.054Z,34.32
2018-09-26T09:52:17.369Z,34.62
2018-09-26T09:54:43.685Z,34.33
2018-09-26T09:57:10.008Z,34.55
2018-09-26T09:59:36.369Z,33.59
2018-09-26T10:02:02.716Z,32.08
2018-09-26T10:04:29.035Z,31.87
2018-09-26T10:06:55.356Z,30.16
2018-09-26T10:09:21.675Z,30.86
2018-09-26T10:11:48.027Z,30.43
2018-09-26T10:14:14.388Z,31.23
2018-09-26T10:16:40.685Z,31.70
2018-09-26T10:19:07.023Z,31.11
2018-09-26T10:21:33.394Z,29.93
2018-09-26T10:23:59.728Z,30.10
2018-09-26T10:26:26.140Z,31.12
2018-09-26T10:28:52.398Z,32.04
2018-09-26T10:31:18.797Z,30.84
2018-09-26T10:33:45.140Z,31.74
2018-09-26T10:36:11.483Z,31.71
2018-09-26T10:38:37.887Z,30.70
2018-09-26T10:41:04.328Z,31.34
2018-09-26T10:43:30.676Z,30.84
2018-09-26T10:45:57.032Z,30.95
2018-09-26T10:48:23.371Z,30.54
2018-09-26T10:50:49.695Z,32.37
2018-09-26T10:53:16.006Z,30.73
2018-09-26T10:55:42.362Z,30.69
2018-09-26T10:58:08.746Z,29.70
2018-09-26T11:00:35.076Z,29.74
2018-09-26T11:03:01.401Z,28.67
2018-09-26T11:05:27.721Z,28.93
2018-09-26T11:07:54.038Z,31.05
2018-09-26T11:10:20.414Z,32.50
2018-09-26T11:12:46.783Z,33.18
2018-09-26T11:15:13.072Z,32.10
2018-09-26T11:17:39.387Z,31.28
2018-09-26T11:20:05.815Z,30.48
2018-09-26T11:22:32.090Z,29.57
2018-09-26T11:24:58.436Z,29.13
2018-09-26T11:27:24.820Z,29.75
2018-09-26T11:29:51.147Z,29.11
2018-09-26T11:32:17.545Z,29.52
2018-09-26T11:34:43.832Z,30.42
2018-09-26T11:37:10.148Z,29.83
2018-09-26T11:39:36.461Z,30.80
2018-09-26T11:42:02.807Z,31.10
2018-09-26T11:44:29.123Z,30.95
2018-09-26T11:46:55.466Z,29.78
2018-09-26T11:49:21.790Z,30.22
2018-09-26T11:51:48.144Z,29.91
2018-09-26T11:54:14.493Z,29.86
2018-09-26T11:56:40.865Z,29.12
2018-09-26T11:59:07.208Z,29.24
2018-09-26T12:01:33.549Z,28.58
2018-09-26T12:03:59.937Z,28.40
2018-09-26T12:06:26.278Z,30.01
2018-09-26T12:08:52.619Z,29.00
2018-09-26T12:11:18.942Z,28.88
2018-09-26T12:13:45.264Z,28.27
2018-09-26T12:16:11.646Z,28.74
2018-09-26T12:18:37.943Z,28.91
2018-09-26T12:21:04.284Z,29.58
2018-09-26T12:23:30.617Z,29.73
2018-09-26T12:25:57.000Z,31.06
2018-09-26T12:28:23.389Z,32.15
2018-09-26T12:30:49.670Z,32.48
2018-09-26T12:33:16.002Z,31.94
2018-09-26T12:35:42.397Z,31.17
2018-09-26T12:38:08.730Z,33.67
2018-09-26T12:40:35.074Z,34.33
2018-09-26T12:43:01.416Z,33.86
2018-09-26T12:45:27.757Z,34.73
2018-09-26T12:47:54.133Z,34.49
2018-09-26T12:50:20.482Z,34.77
2018-09-26T12:52:46.819Z,34.23
2018-09-26T12:55:13.157Z,33.99
2018-09-26T12:57:39.508Z,33.52
2018-09-26T13:00:05.843Z,33.56
2018-09-26T13:02:32.244Z,33.55
2018-09-26T13:04:58.590Z,33.42
2018-09-26T13:07:24.934Z,34.66
2018-09-26T13:09:51.286Z,33.86
2018-09-26T13:12:17.688Z,33.28
2018-09-26T13:14:44.046Z,33.42
2018-09-26T13:17:10.395Z,34.01
2018-09-26T13:19:36.779Z,34.92
2018-09-26T13:22:03.114Z,34.50
2018-09-26T13:24:29.460Z,34.81
2018-09-26T13:26:55.789Z,34.56
2018-09-26T13:29:22.129Z,34.95
2018-09-26T13:31:48.475Z,35.14
2018-09-26T13:34:14.856Z,34.60
2018-09-26T13:36:41.159Z,34.90
2018-09-26T13:39:07.598Z,35.26
2018-09-26T13:41:33.852Z,35.34
2018-09-26T13:44:00.197Z,34.60
2018-09-26T13:46:26.631Z,34.73
2018-09-26T13:48:52.874Z,35.03
2018-09-26T13:51:19.225Z,36.05
2018-09-26T13:53:45.580Z,36.34
2018-09-26T13:56:11.980Z,36.75
2018-09-26T13:58:38.263Z,36.50
2018-09-26T14:01:04.607Z,36.66
2018-09-26T14:03:30.947Z,37.00
2018-09-26T14:05:57.285Z,37.42
2018-09-26T14:08:23.651Z,37.74
2018-09-26T14:10:49.964Z,37.80
2018-09-26T14:13:16.302Z,37.20
2018-09-26T14:15:42.669Z,37.36
2018-09-26T14:18:09.048Z,36.56
2018-09-26T14:20:35.378Z,36.54
2018-09-26T14:23:01.757Z,36.64
2018-09-26T14:25:28.105Z,36.79
2018-09-26T14:27:54.438Z,37.17
2018-09-26T14:30:20.847Z,37.40
2018-09-26T14:32:47.103Z,36.37
2018-09-26T14:35:15.153Z,37.07
2018-09-26T14:37:39.806Z,36.26
2018-09-26T14:40:06.151Z,35.85
2018-09-26T14:42:32.466Z,36.11
2018-09-26T14:44:58.809Z,36.66
2018-09-26T14:47:25.245Z,36.94
2018-09-26T14:49:51.475Z,37.16
2018-09-26T14:52:17.850Z,36.97
2018-09-26T14:54:44.146Z,37.51
2018-09-26T14:57:10.525Z,37.66
2018-09-26T14:59:36.784Z,37.96
2018-09-26T15:02:03.134Z,38.04
2018-09-26T15:04:29.498Z,38.14
2018-09-26T15:06:55.775Z,38.31
2018-09-26T15:09:22.124Z,38.58
2018-09-26T15:11:48.482Z,38.58
2018-09-26T15:14:14.821Z,38.43
2018-09-26T15:16:41.148Z,37.92
2018-09-26T15:19:07.466Z,37.77
2018-09-26T15:21:33.783Z,37.71
2018-09-26T15:24:00.103Z,37.76
2018-09-26T15:26:26.510Z,37.73
2018-09-26T15:28:52.763Z,37.94
2018-09-26T15:31:19.096Z,38.22
2018-09-26T15:33:45.419Z,38.59
2018-09-26T15:36:11.774Z,38.82
2018-09-26T15:38:38.074Z,39.15
2018-09-26T15:41:04.430Z,39.51
2018-09-26T15:43:30.750Z,39.88
2018-09-26T15:45:57.129Z,40.10
2018-09-26T15:48:23.488Z,40.33
2018-09-26T15:50:49.798Z,40.67
2018-09-26T15:53:16.136Z,40.75
2018-09-26T15:55:42.477Z,40.73
2018-09-26T15:58:08.839Z,40.42
2018-09-26T16:00:35.129Z,40.39
2018-09-26T16:03:01.566Z,40.55
2018-09-26T16:05:27.869Z,40.37
2018-09-26T16:07:54.252Z,40.35
2018-09-26T16:10:20.657Z,40.77
2018-09-26T16:12:46.948Z,41.00
2018-09-26T16:15:13.293Z,41.32
2018-09-26T16:17:40.735Z,41.75
2018-09-26T16:20:07.083Z,41.55
2018-09-26T16:22:33.400Z,41.98
2018-09-26T16:24:59.714Z,41.73
2018-09-26T16:27:26.040Z,41.61
2018-09-26T16:29:52.379Z,40.99
2018-09-26T16:32:18.795Z,40.39
2018-09-26T16:34:45.038Z,40.63
2018-09-26T16:37:11.377Z,40.62
2018-09-26T16:39:37.766Z,40.50
2018-09-26T16:42:04.048Z,40.62
2018-09-26T16:44:30.392Z,40.40
2018-09-26T16:46:56.713Z,40.02
2018-09-26T16:49:23.025Z,40.35
2018-09-26T16:51:52.185Z,40.46
2018-09-26T16:54:18.580Z,40.65
2018-09-26T16:56:45.118Z,40.81
2018-09-26T16:59:11.351Z,40.86
2018-09-26T17:01:37.674Z,41.15
2018-09-26T17:04:04.083Z,41.31
2018-09-26T17:06:30.347Z,41.56
2018-09-26T17:08:56.691Z,41.48
2018-09-26T17:11:23.061Z,41.22
2018-09-26T17:13:49.444Z,41.15
2018-09-26T17:16:15.819Z,41.63
2018-09-26T17:18:42.122Z,41.63
2018-09-26T17:21:08.453Z,41.96
2018-09-26T17:23:34.766Z,42.23
2018-09-26T17:26:01.111Z,42.69
2018-09-26T17:28:27.550Z,42.94
2018-09-26T17:30:53.811Z,43.20
2018-09-26T17:33:20.141Z,43.36
2018-09-26T17:35:46.466Z,43.95
2018-09-26T17:38:12.792Z,44.39
2018-09-26T17:40:39.132Z,43.77
2018-09-26T17:43:05.553Z,44.31
2018-09-26T17:45:31.889Z,44.59
2018-09-26T17:47:58.226Z,44.99
2018-09-26T17:50:24.625Z,45.01
2018-09-26T17:52:50.925Z,45.67
2018-09-26T17:55:17.265Z,46.09
2018-09-26T17:57:43.583Z,46.22
2018-09-26T18:00:12.543Z,45.93
2018-09-26T18:02:38.841Z,46.09
2018-09-26T18:05:05.179Z,46.25
2018-09-26T18:07:31.524Z,46.40
2018-09-26T18:09:57.928Z,46.51
2018-09-26T18:12:30.478Z,46.89
2018-09-26T18:14:56.805Z,47.15
2018-09-26T18:17:23.156Z,47.59
2018-09-26T18:19:49.598Z,47.76
2018-09-26T18:22:15.925Z,48.19
2018-09-26T18:24:42.247Z,48.19
2018-09-26T18:27:08.619Z,48.38
2018-09-26T18:29:34.944Z,48.78
2018-09-26T18:32:01.286Z,49.17
2018-09-26T18:34:27.635Z,49.14
2018-09-26T18:36:53.964Z,49.16
2018-09-26T18:39:20.337Z,49.41
2018-09-26T18:41:46.593Z,49.52
2018-09-26T18:44:12.905Z,49.72
2018-09-26T18:46:39.257Z,49.88
2018-09-26T18:49:05.582Z,50.05
2018-09-26T18:51:31.901Z,50.47
2018-09-26T18:53:58.214Z,50.49
2018-09-26T18:56:24.556Z,50.46
2018-09-26T18:58:51.028Z,50.72
2018-09-26T19:01:18.217Z,51.04
2018-09-26T19:06:30.008Z,51.08
2018-09-26T19:08:56.403Z,51.24
2018-09-26T19:11:22.694Z,51.05
2018-09-26T19:13:49.031Z,51.48
2018-09-26T19:16:15.372Z,51.90
2018-09-26T19:18:41.725Z,52.45
2018-09-26T19:21:08.052Z,52.90
2018-09-26T19:23:34.395Z,52.71
2018-09-26T19:26:00.730Z,53.12
2018-09-26T19:28:27.116Z,53.48
2018-09-26T19:30:53.457Z,53.67
2018-09-26T19:33:19.774Z,53.38
2018-09-26T19:35:46.098Z,53.94
2018-09-26T19:38:12.416Z,53.94
2018-09-26T19:40:38.743Z,54.43
2018-09-26T19:43:05.065Z,54.38
2018-09-26T19:45:31.385Z,54.50
2018-09-26T19:47:57.741Z,54.37
2018-09-26T19:50:24.076Z,54.64
2018-09-26T19:52:50.424Z,55.04
2018-09-26T19:55:16.751Z,55.46
2018-09-26T19:57:43.074Z,55.64
2018-09-26T20:00:12.014Z,55.95
2018-09-26T20:02:38.303Z,56.09
2018-09-26T20:05:04.654Z,56.13
2018-09-26T20:07:30.972Z,56.18
2018-09-26T20:09:57.287Z,56.18
2018-09-26T20:12:23.636Z,56.03
2018-09-26T20:14:50.023Z,56.09
2018-09-26T20:17:16.341Z,56.27
2018-09-26T20:19:42.755Z,57.01
2018-09-26T20:22:09.194Z,56.46
2018-09-26T20:24:35.427Z,55.68
2018-09-26T20:27:02.008Z,56.32
2018-09-26T20:29:28.408Z,56.26
2018-09-26T20:31:54.610Z,56.75
2018-09-26T20:34:20.941Z,57.22
2018-09-26T20:36:47.264Z,57.41
2018-09-26T20:39:13.597Z,59.32
2018-09-26T20:41:39.935Z,57.46
2018-09-26T20:44:06.273Z,57.17
2018-09-26T20:46:32.618Z,57.01
2018-09-26T20:48:58.967Z,57.52
2018-09-26T20:51:25.300Z,57.80
2018-09-26T20:53:51.634Z,57.99
2018-09-26T20:56:17.974Z,58.29
2018-09-26T20:58:44.310Z,58.83
2018-09-26T21:01:10.644Z,58.57
2018-09-26T21:03:36.971Z,58.52
2018-09-26T21:06:03.324Z,59.53
2018-09-26T21:08:29.655Z,58.54
2018-09-26T21:10:56.001Z,59.52
2018-09-26T21:13:22.334Z,58.59
2018-09-26T21:15:48.668Z,58.82
2018-09-26T21:18:14.998Z,59.24
2018-09-26T21:20:41.341Z,60.04
2018-09-26T21:23:07.701Z,60.20
2018-09-26T21:25:34.004Z,60.30
2018-09-26T21:28:00.343Z,59.53
2018-09-26T21:30:26.684Z,59.69
2018-09-26T21:32:53.066Z,59.63
2018-09-26T21:35:19.385Z,61.11
2018-09-26T21:37:45.732Z,60.03
2018-09-26T21:40:12.048Z,60.44
2018-09-26T21:42:38.367Z,60.22
2018-09-26T21:45:04.706Z,62.18
2018-09-26T21:47:31.049Z,60.98
2018-09-26T21:49:57.398Z,61.89
2018-09-26T21:52:23.737Z,61.29
2018-09-26T21:54:50.080Z,60.96
2018-09-26T21:57:16.416Z,61.12
2018-09-26T21:59:42.729Z,61.13
2018-09-26T22:02:09.044Z,61.05
2018-09-26T22:04:35.383Z,62.41
2018-09-26T22:07:01.745Z,62.75
2018-09-26T22:09:28.039Z,62.85
2018-09-26T22:11:54.358Z,63.09
2018-09-26T22:14:20.672Z,62.17
2018-09-26T22:16:47.002Z,62.61
2018-09-26T22:19:13.316Z,63.00
2018-09-26T22:21:39.634Z,62.66
2018-09-26T22:24:05.970Z,62.03
2018-09-26T22:26:32.337Z,62.08
2018-09-26T22:28:58.679Z,62.84
2018-09-26T22:31:24.993Z,62.88
2018-09-26T22:33:51.329Z,63.20
2018-09-26T22:36:17.645Z,63.94
2018-09-26T22:38:43.986Z,63.49
2018-09-26T22:41:10.333Z,64.30
2018-09-26T22:43:36.672Z,63.99
2018-09-26T22:46:03.008Z,64.24
2018-09-26T22:48:29.326Z,64.07
2018-09-26T22:50:55.678Z,64.52
2018-09-26T22:53:21.992Z,64.54
2018-09-26T22:55:48.320Z,65.21
2018-09-26T22:58:14.705Z,65.09
2018-09-26T23:00:40.980Z,64.84
2018-09-26T23:03:07.325Z,64.76
2018-09-26T23:05:33.641Z,64.85
2018-09-26T23:07:59.981Z,65.26
2018-09-26T23:10:26.325Z,65.70
2018-09-26T23:12:52.648Z,64.75
2018-09-26T23:15:19.041Z,65.30
2018-09-26T23:17:45.319Z,64.68
2018-09-26T23:20:11.661Z,65.33
2018-09-26T23:22:38.000Z,64.20
2018-09-26T23:25:04.334Z,64.53
2018-09-26T23:27:30.649Z,64.62
2018-09-26T23:29:56.996Z,64.93
2018-09-26T23:32:23.337Z,66.02
2018-09-26T23:34:49.647Z,65.12
2018-09-26T23:37:15.961Z,65.97
2018-09-26T23:39:42.303Z,65.73
2018-09-26T23:42:08.620Z,64.67
2018-09-26T23:44:34.929Z,65.06
2018-09-26T23:47:01.240Z,63.81
2018-09-26T23:49:27.574Z,64.33
2018-09-26T23:51:53.894Z,63.51
2018-09-26T23:54:20.208Z,64.27
2018-09-26T23:56:46.525Z,65.75
2018-09-26T23:59:12.880Z,64.71
